Time;durP1;ratioP1;P1;durP2;ratioP2;P2;SDS_P1;SDS_P2;PMS_P1;PMS_P2;Temp;Humidity;BMP_temperature;BMP_pressure;BME280_temperature;BME280_humidity;BME280_pressure;Samples;Min_cycle;Max_cycle;Signal;HPM_P1;HPM_P2
2021/05/18 00:00:25;;;;;;;1.75;0.20;;;14.50;60.90;;;;;;5042994;28;20104;-70
2021/05/18 00:02:52;;;;;;;0.73;0.30;;;14.40;60.90;;;;;;5048056;28;20375;-70
2021/05/18 00:05:19;;;;;;;0.88;0.30;;;14.40;61.20;;;;;;5023337;28;20127;-70
2021/05/18 00:07:53;;;;;;;3.58;1.33;;;14.40;61.80;;;;;;5045831;28;20037;-71
2021/05/18 00:13:05;;;;;;;4.88;0.50;;;14.40;62.00;;;;;;5040323;28;20078;-72
2021/05/18 00:15:30;;;;;;;0.40;0.28;;;14.40;62.10;;;;;;5048251;28;20135;-71
2021/05/18 00:17:57;;;;;;;0.73;0.50;;;14.40;62.30;;;;;;5044159;28;20511;-71
2021/05/18 00:20:23;;;;;;;1.13;0.50;;;14.40;62.20;;;;;;5043813;28;20113;-70
2021/05/18 00:22:49;;;;;;;2.17;0.65;;;14.40;62.00;;;;;;5037096;28;20018;-71
2021/05/18 00:25:15;;;;;;;1.92;0.65;;;14.40;61.80;;;;;;5048393;28;20043;-71
2021/05/18 00:27:41;;;;;;;0.90;0.25;;;14.40;62.00;;;;;;5037962;28;20063;-71
2021/05/18 00:30:09;;;;;;;1.60;0.40;;;14.40;62.20;;;;;;5045161;28;20029;-71
2021/05/18 00:32:36;;;;;;;3.17;0.45;;;14.40;62.40;;;;;;5038583;28;20040;-71
2021/05/18 00:35:02;;;;;;;0.65;0.30;;;14.40;62.50;;;;;;5046858;28;20098;-71
2021/05/18 00:37:28;;;;;;;0.98;0.40;;;14.40;62.30;;;;;;5023688;28;20099;-71
2021/05/18 00:39:54;;;;;;;0.70;0.30;;;14.40;62.40;;;;;;5044114;28;20152;-71
2021/05/18 00:42:22;;;;;;;1.05;0.40;;;14.40;62.20;;;;;;5043198;28;20082;-71
2021/05/18 00:44:52;;;;;;;3.88;0.40;;;14.30;62.00;;;;;;5034324;28;20021;-71
2021/05/18 00:47:18;;;;;;;0.85;0.38;;;14.30;62.00;;;;;;5047621;28;20040;-71
2021/05/18 00:49:44;;;;;;;0.32;0.30;;;14.30;62.10;;;;;;5037481;28;20049;-72
2021/05/18 00:52:10;;;;;;;2.33;0.52;;;14.30;62.00;;;;;;5041562;28;20021;-71
2021/05/18 00:54:43;;;;;;;3.28;0.60;;;14.30;62.30;;;;;;5045336;28;20035;-72
2021/05/18 00:59:54;;;;;;;3.35;0.50;;;14.30;62.50;;;;;;5025752;28;20390;-72
2021/05/18 01:02:24;;;;;;;0.65;0.30;;;14.30;62.40;;;;;;5039930;28;20033;-72
2021/05/18 01:04:56;;;;;;;1.85;0.60;;;14.20;62.50;;;;;;5036099;28;20036;-72
2021/05/18 01:07:22;;;;;;;0.98;0.40;;;14.20;62.50;;;;;;5047984;28;20024;-72
2021/05/18 01:09:48;;;;;;;1.05;0.32;;;14.30;62.90;;;;;;5038579;28;20487;-72
2021/05/18 01:12:14;;;;;;;0.77;0.40;;;14.30;63.00;;;;;;5039512;28;20026;-72
2021/05/18 01:14:40;;;;;;;1.02;0.60;;;14.30;63.00;;;;;;5045634;28;20126;-73
2021/05/18 01:17:06;;;;;;;1.02;0.35;;;14.30;63.10;;;;;;5031282;28;20033;-72
2021/05/18 01:19:32;;;;;;;1.13;0.40;;;14.30;63.30;;;;;;5045418;28;20030;-72
2021/05/18 01:22:00;;;;;;;0.52;0.30;;;14.40;63.20;;;;;;5039833;28;20036;-72
2021/05/18 01:24:26;;;;;;;1.75;0.55;;;14.40;64.00;;;;;;5043744;28;20026;-73
2021/05/18 01:26:52;;;;;;;1.70;0.50;;;14.40;63.00;;;;;;5017769;28;20547;-73
2021/05/18 01:29:21;;;;;;;2.13;0.38;;;14.40;62.70;;;;;;5047437;28;20025;-73
2021/05/18 01:31:47;;;;;;;1.85;0.60;;;14.40;62.40;;;;;;5030093;28;20052;-73
2021/05/18 01:34:14;;;;;;;0.45;0.40;;;14.40;62.40;;;;;;5040843;28;20060;-72
2021/05/18 01:36:40;;;;;;;0.98;0.47;;;14.50;62.60;;;;;;5024750;28;20056;-74
2021/05/18 01:44:29;;;;;;;0.63;0.20;;;14.40;62.80;;;;;;5038788;28;20080;-74
2021/05/18 01:46:54;;;;;;;0.98;0.30;;;14.50;62.80;;;;;;5046647;28;20033;-75
2021/05/18 01:49:21;;;;;;;0.47;0.40;;;14.60;63.20;;;;;;5022783;28;20553;-74
2021/05/18 01:51:54;;;;;;;1.17;0.60;;;14.60;63.20;;;;;;5044543;28;20022;-74
2021/05/18 01:54:24;;;;;;;1.17;0.50;;;14.70;63.30;;;;;;5032070;28;20032;-74
2021/05/18 01:59:23;;;;;;;0.93;0.32;;;14.80;62.90;;;;;;5032318;28;20060;-74
2021/05/18 02:01:51;;;;;;;0.57;0.38;;;14.80;62.90;;;;;;5040923;28;20028;-75
2021/05/18 02:04:48;;;;;;;1.42;0.30;;;14.80;62.90;;;;;;5040636;28;20033;-75
2021/05/18 02:07:19;;;;;;;1.95;0.45;;;14.90;63.00;;;;;;5049994;28;20037;-74
2021/05/18 02:09:45;;;;;;;2.30;0.40;;;14.90;62.80;;;;;;5029741;28;20033;-74
2021/05/18 02:12:11;;;;;;;1.38;0.52;;;15.00;62.80;;;;;;5035237;28;20025;-75
2021/05/18 02:14:39;;;;;;;2.13;0.40;;;15.00;63.00;;;;;;5041283;28;20029;-75
2021/05/18 02:25:01;;;;;;;0.85;0.40;;;15.10;62.20;;;;;;5020863;28;20026;-77
2021/05/18 02:27:28;;;;;;;1.33;0.40;;;15.10;62.00;;;;;;5022719;28;20025;-76
2021/05/18 02:29:55;;;;;;;0.80;0.30;;;15.10;61.60;;;;;;5046610;28;20028;-77
2021/05/18 02:32:23;;;;;;;0.68;0.30;;;15.10;61.60;;;;;;5037437;28;20385;-76
2021/05/18 02:34:48;;;;;;;0.65;0.40;;;15.10;61.50;;;;;;5016275;28;20161;-76
2021/05/18 02:37:15;;;;;;;0.55;0.30;;;15.10;61.60;;;;;;5026350;28;20094;-76
2021/05/18 02:39:41;;;;;;;0.65;0.43;;;15.10;61.70;;;;;;5040051;28;20021;-77
2021/05/18 02:42:07;;;;;;;0.80;0.63;;;15.10;61.80;;;;;;5032189;28;20512;-76
2021/05/18 02:49:45;;;;;;;0.57;0.20;;;15.20;61.40;;;;;;5034431;28;20056;-76
2021/05/18 02:52:11;;;;;;;0.47;0.30;;;15.20;61.30;;;;;;5043571;28;20391;-75
2021/05/18 02:54:37;;;;;;;0.52;0.40;;;15.20;61.70;;;;;;5045392;28;20032;-74
2021/05/18 02:57:06;;;;;;;7.60;1.30;;;15.20;61.30;;;;;;5032923;28;20033;-74
2021/05/18 02:59:31;;;;;;;0.85;0.30;;;15.20;60.60;;;;;;5031763;28;20509;-74
2021/05/18 03:02:00;;;;;;;0.73;0.40;;;15.20;60.60;;;;;;5037157;28;20029;-73
2021/05/18 03:04:27;;;;;;;0.73;0.22;;;15.20;60.70;;;;;;5029397;28;20022;-73
2021/05/18 03:06:54;;;;;;;0.88;0.40;;;15.20;60.00;;;;;;5039011;28;20054;-73
2021/05/18 03:09:21;;;;;;;0.68;0.30;;;15.20;60.10;;;;;;5047759;28;20114;-72
2021/05/18 03:11:50;;;;;;;3.50;0.63;;;15.20;59.70;;;;;;5039624;28;20065;-72
2021/05/18 03:14:16;;;;;;;0.77;0.30;;;15.20;59.80;;;;;;5035019;28;20108;-72
2021/05/18 03:16:45;;;;;;;0.40;0.20;;;15.20;60.20;;;;;;5037557;28;20041;-71
2021/05/18 03:19:11;;;;;;;0.80;0.30;;;15.20;60.00;;;;;;5031950;28;20038;-71
2021/05/18 03:21:42;;;;;;;1.20;0.40;;;15.30;60.20;;;;;;5047644;28;20052;-71
2021/05/18 03:24:08;;;;;;;1.23;0.40;;;15.20;60.30;;;;;;5039450;28;20490;-71
2021/05/18 03:26:36;;;;;;;2.15;0.50;;;15.30;60.50;;;;;;5020749;28;20072;-71
2021/05/18 03:29:13;;;;;;;1.98;0.28;;;15.30;60.00;;;;;;5027648;28;20683;-71
2021/05/18 03:34:38;;;;;;;1.80;0.32;;;15.30;60.10;;;;;;5036606;28;20490;-71
2021/05/18 03:40:06;;;;;;;0.50;0.30;;;15.30;60.50;;;;;;5040017;28;20151;-71
2021/05/18 03:42:42;;;;;;;1.08;0.52;;;15.30;60.20;;;;;;5019992;28;20026;-70
2021/05/18 03:45:16;;;;;;;0.30;0.30;;;15.30;60.10;;;;;;5044430;28;20021;-71
2021/05/18 04:17:24;;;;;;;0.73;0.35;;;15.50;60.70;;;;;;5020982;28;20115;-70
2021/05/18 04:22:44;;;;;;;1.23;0.60;;;15.50;60.30;;;;;;5039997;28;20086;-70
2021/05/18 04:25:45;;;;;;;1.13;0.60;;;15.40;60.40;;;;;;5034138;28;20025;-70
2021/05/18 04:40:11;;;;;;;4.43;0.60;;;15.60;60.90;;;;;;5015135;28;20044;-70
2021/05/18 04:42:29;;;;;;;2.28;0.50;;;15.60;60.50;;;;;;5043263;28;20081;-69
2021/05/18 05:00:53;;;;;;;1.88;0.68;;;15.80;60.50;;;;;;5041102;28;20044;-69
2021/05/18 05:06:19;;;;;;;1.88;0.68;;;15.80;60.20;;;;;;5042279;28;20034;-70
2021/05/18 05:14:34;;;;;;;1.63;0.60;;;16.00;60.20;;;;;;5076465;28;20044;-70
2021/05/18 05:16:59;;;;;;;0.45;0.38;;;16.00;60.10;;;;;;5070456;28;20040;-70
2021/05/18 05:19:29;;;;;;;1.40;0.60;;;16.00;60.20;;;;;;5078704;28;20062;-69
2021/05/18 05:21:56;;;;;;;5.55;2.72;;;16.10;60.40;;;;;;5081777;28;20028;-69
2021/05/18 05:24:23;;;;;;;8.73;4.93;;;16.10;60.20;;;;;;5081177;28;20040;-69
2021/05/18 05:26:49;;;;;;;9.25;4.10;;;16.10;60.00;;;;;;5082423;28;20078;-69
2021/05/18 05:29:16;;;;;;;4.72;2.50;;;16.20;60.30;;;;;;5080147;28;20045;-70
2021/05/18 05:31:42;;;;;;;5.22;1.67;;;16.20;60.10;;;;;;5083442;28;20115;-69
2021/05/18 05:34:09;;;;;;;5.97;2.72;;;16.20;59.40;;;;;;5078711;28;20103;-70
2021/05/18 05:36:37;;;;;;;1.65;0.90;;;16.20;59.50;;;;;;5079995;28;20040;-69
2021/05/18 05:39:13;;;;;;;4.53;2.53;;;16.20;59.40;;;;;;5055989;28;20028;-69
2021/05/18 05:41:39;;;;;;;4.25;1.10;;;16.30;59.80;;;;;;5083551;28;20052;-69
2021/05/18 05:44:05;;;;;;;3.67;1.17;;;16.30;59.70;;;;;;5036279;28;20127;-70
2021/05/18 05:46:32;;;;;;;2.47;0.70;;;16.30;59.50;;;;;;5030995;28;20120;-69
2021/05/18 05:48:58;;;;;;;0.90;0.50;;;16.30;59.90;;;;;;5018636;28;20077;-69
2021/05/18 05:51:26;;;;;;;2.03;1.45;;;16.40;60.30;;;;;;5019729;28;20049;-69
2021/05/18 05:53:54;;;;;;;4.60;2.75;;;16.40;59.80;;;;;;5030508;28;20033;-69
2021/05/18 05:56:20;;;;;;;23.00;1.27;;;16.50;60.20;;;;;;5042077;28;20482;-69
2021/05/18 05:58:48;;;;;;;1.50;0.80;;;16.50;58.80;;;;;;5028854;28;20084;-69
2021/05/18 06:01:14;;;;;;;1.50;0.57;;;16.50;59.10;;;;;;5048536;28;20076;-69
2021/05/18 06:03:40;;;;;;;5.68;0.98;;;16.60;59.40;;;;;;5044137;28;20040;-69
2021/05/18 06:06:06;;;;;;;2.78;0.50;;;16.70;59.50;;;;;;5032849;28;20556;-69
2021/05/18 06:08:37;;;;;;;12.05;0.80;;;16.70;58.90;;;;;;5041891;28;20017;-70
2021/05/18 06:11:10;;;;;;;2.78;0.73;;;16.70;58.60;;;;;;5037450;28;20022;-69
2021/05/18 06:13:46;;;;;;;1.30;0.65;;;16.70;58.20;;;;;;5045394;28;20025;-69
2021/05/18 06:35:41;;;;;;;2.65;0.90;;;17.00;57.40;;;;;;5028261;28;20080;-69
2021/05/18 06:48:36;;;;;;;1.38;0.60;;;17.20;56.70;;;;;;5034828;28;20022;-69
2021/05/18 06:51:02;;;;;;;1.00;0.30;;;17.30;56.50;;;;;;5048096;28;20049;-69
2021/05/18 06:53:28;;;;;;;1.02;0.65;;;17.40;56.40;;;;;;5037134;28;20137;-69
2021/05/18 06:55:56;;;;;;;0.60;0.40;;;17.40;56.00;;;;;;5041699;28;20549;-69
2021/05/18 07:01:08;;;;;;;0.57;0.30;;;17.60;56.40;;;;;;5033174;28;20028;-69
2021/05/18 07:03:58;;;;;;;2.05;0.40;;;17.60;55.60;;;;;;5036396;28;20024;-69
2021/05/18 07:11:17;;;;;;;1.35;0.40;;;17.80;55.00;;;;;;5038193;28;20022;-69
2021/05/18 07:13:43;;;;;;;1.48;0.47;;;17.70;54.30;;;;;;5048132;28;20021;-69
2021/05/18 07:16:08;;;;;;;0.47;0.30;;;17.60;53.80;;;;;;5026873;28;20030;-69
2021/05/18 07:18:35;;;;;;;0.80;0.50;;;17.60;54.00;;;;;;5037580;28;20025;-69
2021/05/18 07:21:01;;;;;;;1.08;0.40;;;17.50;53.90;;;;;;5044006;28;20022;-69
2021/05/18 07:23:27;;;;;;;1.30;0.60;;;17.40;53.60;;;;;;5050588;28;20029;-69
2021/05/18 07:25:53;;;;;;;0.82;0.40;;;17.30;54.00;;;;;;5045939;28;20060;-70
2021/05/18 07:28:20;;;;;;;0.68;0.50;;;17.20;54.70;;;;;;5039003;28;20117;-69
2021/05/18 07:30:47;;;;;;;4.18;0.40;;;17.10;55.20;;;;;;5028089;28;20036;-69
2021/05/18 07:33:12;;;;;;;2.28;0.70;;;17.10;56.20;;;;;;5020270;28;20110;-69
2021/05/18 07:35:38;;;;;;;1.35;0.82;;;17.10;55.80;;;;;;5031905;28;20112;-69
2021/05/18 07:38:05;;;;;;;3.88;0.75;;;17.00;56.10;;;;;;5040708;28;20055;-69
2021/05/18 07:40:32;;;;;;;2.17;0.90;;;16.90;56.20;;;;;;5039602;28;20060;-69
2021/05/18 07:42:58;;;;;;;2.13;0.50;;;16.90;56.20;;;;;;5045655;28;20441;-69
2021/05/18 07:45:29;;;;;;;0.82;0.50;;;16.90;56.80;;;;;;5028915;28;20029;-69
2021/05/18 07:48:03;;;;;;;1.10;0.60;;;16.90;57.10;;;;;;5025823;28;20374;-69
2021/05/18 08:06:54;;;;;;;1.00;0.60;;;17.30;56.30;;;;;;5049457;28;20127;-68
2021/05/18 08:09:22;;;;;;;2.65;0.32;;;17.30;56.90;;;;;;5031952;28;20077;-69
2021/05/18 08:11:48;;;;;;;0.73;0.30;;;17.40;57.60;;;;;;5040258;28;20020;-68
2021/05/18 08:14:14;;;;;;;2.00;0.50;;;17.60;57.90;;;;;;5042244;28;20027;-68
2021/05/18 08:49:31;;;;;;;1.42;0.57;;;19.50;50.50;;;;;;5028653;28;20087;-69
2021/05/18 10:14:37;;;;;;;1.75;0.60;;;19.50;48.80;;;;;;5047875;28;20060;-68
2021/05/18 10:38:28;;;;;;;0.60;0.50;;;20.70;44.20;;;;;;5015902;28;20094;-68
2021/05/18 10:41:05;;;;;;;2.05;0.28;;;20.80;43.60;;;;;;5015565;28;20038;-68
2021/05/18 10:43:32;;;;;;;1.90;0.30;;;20.80;43.90;;;;;;5015621;28;20018;-68
2021/05/18 10:46:00;;;;;;;1.38;0.52;;;21.00;44.60;;;;;;5015763;28;20463;-68
2021/05/18 10:48:35;;;;;;;1.50;0.50;;;21.10;43.50;;;;;;5030739;28;20528;-68
2021/05/18 10:51:23;;;;;;;0.50;0.30;;;21.30;42.40;;;;;;5015279;28;20518;-68
2021/05/18 10:54:34;;;;;;;2.70;0.30;;;21.30;41.50;;;;;;5015376;28;20499;-68
2021/05/18 10:57:09;;;;;;;3.72;0.43;;;21.40;42.20;;;;;;5015228;28;20541;-68
2021/05/18 10:59:47;;;;;;;1.10;0.30;;;21.50;41.90;;;;;;5015326;28;20026;-68
2021/05/18 11:02:24;;;;;;;58.13;7.65;;;21.60;42.40;;;;;;5015272;28;20026;-67
2021/05/18 11:05:12;;;;;;;3.38;0.68;;;21.70;42.40;;;;;;5015082;28;20041;-68
2021/05/18 11:07:45;;;;;;;3.17;0.70;;;21.70;41.70;;;;;;5015102;28;20049;-68
2021/05/18 11:10:15;;;;;;;0.98;0.40;;;21.60;42.70;;;;;;5015193;28;20499;-68
2021/05/18 11:12:43;;;;;;;0.52;0.45;;;21.50;43.00;;;;;;5015378;28;20407;-69
2021/05/18 11:15:10;;;;;;;0.47;0.20;;;21.40;43.80;;;;;;5015099;28;20049;-68
2021/05/18 11:17:38;;;;;;;0.75;0.32;;;21.30;42.70;;;;;;5015664;28;20025;-68
2021/05/18 11:20:09;;;;;;;0.82;0.30;;;21.20;43.00;;;;;;5014958;28;20030;-68
2021/05/18 11:25:30;;;;;;;3.80;0.43;;;21.10;44.40;;;;;;5029638;28;20103;-68
2021/05/18 11:28:06;;;;;;;1.70;0.20;;;21.20;44.10;;;;;;5014605;28;20018;-68
2021/05/18 11:30:32;;;;;;;0.75;0.50;;;21.30;43.70;;;;;;5014628;28;20049;-68
2021/05/18 11:32:58;;;;;;;0.85;0.30;;;21.50;43.20;;;;;;5014707;28;20505;-68
2021/05/18 11:35:24;;;;;;;0.52;0.20;;;21.60;42.40;;;;;;5014466;28;20476;-68
2021/05/18 11:38:01;;;;;;;0.50;0.20;;;21.70;41.90;;;;;;5014616;28;20033;-68
2021/05/18 11:40:27;;;;;;;0.60;0.30;;;21.90;42.40;;;;;;5014572;28;20053;-68
2021/05/18 11:42:53;;;;;;;1.65;0.40;;;21.90;40.90;;;;;;5014509;28;20083;-68
2021/05/18 11:45:20;;;;;;;0.73;0.35;;;22.10;41.20;;;;;;5014748;28;20026;-68
2021/05/18 11:47:48;;;;;;;0.22;0.20;;;22.20;40.90;;;;;;5031705;28;20025;-68
2021/05/18 11:50:26;;;;;;;0.52;0.40;;;22.30;40.20;;;;;;5033846;28;20049;-68
2021/05/18 11:52:53;;;;;;;3.15;0.40;;;22.50;40.50;;;;;;5034106;28;20104;-68
2021/05/18 11:55:28;;;;;;;0.88;0.30;;;22.60;39.30;;;;;;5033928;28;20021;-68
2021/05/18 11:57:54;;;;;;;0.75;0.30;;;22.70;41.20;;;;;;5034061;28;20171;-68
2021/05/18 12:00:30;;;;;;;0.70;0.30;;;22.80;40.00;;;;;;5033944;28;20032;-68
2021/05/18 12:03:05;;;;;;;1.17;0.30;;;22.80;40.70;;;;;;5033793;28;20025;-68
2021/05/18 12:05:31;;;;;;;0.50;0.20;;;22.60;39.10;;;;;;5033636;28;20029;-68
2021/05/18 12:07:58;;;;;;;0.45;0.20;;;22.60;39.40;;;;;;5033655;28;20017;-67
2021/05/18 12:10:35;;;;;;;1.60;0.32;;;22.40;39.60;;;;;;5032334;28;20032;-68
2021/05/18 12:13:03;;;;;;;0.93;0.50;;;22.20;39.50;;;;;;5033615;28;20021;-68
2021/05/18 12:15:29;;;;;;;2.78;0.20;;;21.90;39.50;;;;;;5031988;28;20104;-68
2021/05/18 12:17:57;;;;;;;2.13;0.40;;;21.70;40.20;;;;;;5032420;28;20028;-68
2021/05/18 12:20:24;;;;;;;1.88;0.30;;;21.50;40.30;;;;;;5033540;28;20036;-68
2021/05/18 12:22:52;;;;;;;4.57;0.30;;;21.30;40.90;;;;;;5033510;28;20538;-68
2021/05/18 12:25:32;;;;;;;2.72;0.47;;;21.20;40.40;;;;;;5032029;28;20025;-68
2021/05/18 12:28:06;;;;;;;4.15;1.20;;;21.10;41.10;;;;;;5033439;28;20029;-68
2021/05/18 12:30:43;;;;;;;0.88;0.45;;;21.20;41.60;;;;;;5033471;28;20029;-68
2021/05/18 12:33:09;;;;;;;3.15;0.45;;;21.20;41.60;;;;;;5023316;28;20032;-68
2021/05/18 12:35:36;;;;;;;0.75;0.50;;;21.30;41.90;;;;;;5013642;28;20050;-68
2021/05/18 12:38:14;;;;;;;0.60;0.50;;;21.40;41.10;;;;;;5012180;28;20049;-68
2021/05/18 12:40:43;;;;;;;0.75;0.30;;;21.40;41.00;;;;;;5012352;28;20431;-68
2021/05/18 12:43:14;;;;;;;1.15;0.40;;;21.40;41.10;;;;;;5013540;28;20014;-68
2021/05/18 12:45:41;;;;;;;5.65;0.82;;;21.30;40.80;;;;;;5012806;28;20032;-68
2021/05/18 12:48:08;;;;;;;1.42;0.73;;;21.20;41.00;;;;;;5013280;28;20022;-68
2021/05/18 12:50:47;;;;;;;0.32;0.30;;;21.20;40.40;;;;;;5013095;28;20042;-68
2021/05/18 12:53:32;;;;;;;1.50;0.60;;;21.10;39.60;;;;;;5013164;28;20376;-68
2021/05/18 12:55:59;;;;;;;0.35;0.30;;;21.20;39.90;;;;;;5011965;28;20510;-68
2021/05/18 12:58:31;;;;;;;6.47;0.57;;;21.30;40.50;;;;;;5013277;28;20026;-68
2021/05/18 13:01:14;;;;;;;1.55;0.30;;;21.40;40.30;;;;;;5013155;28;20022;-68
2021/05/18 13:03:43;;;;;;;1.93;0.40;;;21.30;40.00;;;;;;5012807;28;20041;-68
2021/05/18 13:06:08;;;;;;;2.15;0.38;;;21.40;40.10;;;;;;5012731;28;20022;-68
2021/05/18 13:08:37;;;;;;;0.35;0.28;;;21.40;40.50;;;;;;5012929;28;20029;-68
2021/05/18 13:13:59;;;;;;;6.80;1.13;;;21.70;39.20;;;;;;5013429;28;20072;-68
2021/05/18 13:16:33;;;;;;;0.88;0.25;;;21.70;37.60;;;;;;5013124;28;20026;-68
2021/05/18 13:19:10;;;;;;;0.45;0.30;;;21.60;37.80;;;;;;5013198;28;20029;-69
2021/05/18 13:22:00;;;;;;;0.90;0.20;;;21.60;37.80;;;;;;5013299;28;20388;-69
2021/05/18 13:27:12;;;;;;;1.85;0.30;;;21.30;38.10;;;;;;5021608;28;20041;-69
2021/05/18 13:29:37;;;;;;;0.38;0.20;;;21.20;38.40;;;;;;5013047;28;20029;-68
2021/05/18 13:32:04;;;;;;;0.38;0.20;;;21.10;39.00;;;;;;5012815;28;20442;-68
2021/05/18 13:34:30;;;;;;;3.47;0.20;;;20.80;39.60;;;;;;5012879;28;20026;-68
2021/05/18 13:36:56;;;;;;;1.77;0.40;;;20.80;40.90;;;;;;5012414;28;20049;-68
2021/05/18 13:39:26;;;;;;;3.42;0.93;;;20.70;41.40;;;;;;5012717;28;20022;-68
2021/05/18 13:41:53;;;;;;;2.33;0.70;;;20.70;41.10;;;;;;5013178;28;20022;-68
2021/05/18 13:44:19;;;;;;;3.97;1.20;;;20.80;41.10;;;;;;5020346;28;20463;-68
2021/05/18 13:46:46;;;;;;;10.18;1.70;;;21.10;40.80;;;;;;5032568;28;20108;-68
2021/05/18 13:49:13;;;;;;;7.47;2.28;;;21.40;39.30;;;;;;5031869;28;20013;-68
2021/05/18 13:51:40;;;;;;;1.02;0.70;;;21.90;39.70;;;;;;5032364;28;20021;-68
2021/05/18 13:54:06;;;;;;;0.73;0.30;;;22.30;39.20;;;;;;5032512;28;20017;-68
2021/05/18 13:56:33;;;;;;;1.02;0.40;;;22.90;39.20;;;;;;5034694;28;20025;-68
2021/05/18 13:58:59;;;;;;;0.40;0.30;;;23.60;38.10;;;;;;5036220;28;20022;-68
2021/05/18 14:01:25;;;;;;;3.70;0.57;;;24.40;37.90;;;;;;5036128;28;20713;-68
2021/05/18 14:03:53;;;;;;;0.50;0.30;;;25.20;36.10;;;;;;5036011;28;20033;-69
2021/05/18 14:06:19;;;;;;;0.22;0.22;;;26.00;33.80;;;;;;5034722;28;20029;-68
2021/05/18 14:08:45;;;;;;;1.52;0.30;;;26.60;31.60;;;;;;5034784;28;20018;-68
2021/05/18 14:11:20;;;;;;;0.98;0.80;;;27.10;30.30;;;;;;5036046;28;20021;-68
2021/05/18 14:13:49;;;;;;;1.60;0.60;;;27.60;31.20;;;;;;5031837;28;20072;-69
2021/05/18 14:16:18;;;;;;;1.55;0.35;;;28.10;29.60;;;;;;5016066;28;20045;-68
2021/05/18 14:18:53;;;;;;;3.42;0.57;;;28.50;29.20;;;;;;5015977;28;20084;-69
2021/05/18 14:21:21;;;;;;;3.75;0.40;;;28.90;27.90;;;;;;5031186;28;20530;-69
2021/05/18 14:23:57;;;;;;;2.80;0.40;;;29.40;28.50;;;;;;5015878;28;20502;-69
2021/05/18 14:26:29;;;;;;;0.47;0.35;;;29.80;27.10;;;;;;5015884;28;20025;-68
2021/05/18 14:28:55;;;;;;;1.05;0.38;;;30.30;26.50;;;;;;5025360;28;20040;-69
2021/05/18 14:31:21;;;;;;;0.77;0.40;;;30.70;26.80;;;;;;5018735;28;20026;-69
2021/05/18 14:33:47;;;;;;;0.30;0.30;;;31.10;24.70;;;;;;5015589;28;20072;-69
2021/05/18 14:36:13;;;;;;;0.20;0.20;;;31.50;25.90;;;;;;5015384;28;20034;-69
2021/05/18 14:38:43;;;;;;;0.20;0.20;;;31.90;25.50;;;;;;5015555;28;20032;-69
2021/05/18 14:44:12;;;;;;;1.10;0.40;;;32.90;23.90;;;;;;5031311;28;20037;-69
2021/05/18 14:54:50;;;;;;;0.95;0.45;;;34.90;21.00;;;;;;5015496;28;20036;-69
2021/05/18 14:57:16;;;;;;;0.60;0.40;;;35.30;21.10;;;;;;5015369;28;20018;-69
2021/05/18 14:59:42;;;;;;;0.30;0.30;;;35.50;20.90;;;;;;5015278;28;20060;-67
2021/05/18 15:02:08;;;;;;;0.70;0.52;;;35.70;20.10;;;;;;5015070;28;20049;-67
2021/05/18 15:04:35;;;;;;;16.48;0.52;;;36.10;20.40;;;;;;5015157;28;20516;-67
2021/05/18 15:07:06;;;;;;;0.32;0.28;;;36.20;19.80;;;;;;5014580;28;20037;-69
2021/05/18 15:09:32;;;;;;;2.78;0.55;;;36.20;19.50;;;;;;5015045;28;20068;-70
2021/05/18 15:11:58;;;;;;;0.22;0.20;;;36.20;19.40;;;;;;5015047;28;20026;-69
2021/05/18 15:14:24;;;;;;;2.88;0.50;;;36.00;18.70;;;;;;5015332;28;20018;-69
2021/05/18 15:16:50;;;;;;;0.30;0.30;;;36.00;18.40;;;;;;5014860;28;20040;-69
2021/05/18 15:19:17;;;;;;;0.50;0.30;;;36.10;18.40;;;;;;5014769;28;20080;-69
2021/05/18 15:21:43;;;;;;;0.17;0.17;;;36.00;17.80;;;;;;5014722;28;20029;-67
2021/05/18 15:24:10;;;;;;;0.75;0.20;;;35.80;17.90;;;;;;5014611;28;20064;-69
2021/05/18 15:26:36;;;;;;;3.03;0.40;;;35.70;18.40;;;;;;5014517;28;20045;-69
2021/05/18 15:29:05;;;;;;;0.60;0.15;;;35.70;18.50;;;;;;5014663;28;20467;-69
2021/05/18 15:31:32;;;;;;;0.30;0.20;;;35.80;17.70;;;;;;5014623;28;20025;-69
2021/05/18 15:33:58;;;;;;;0.90;0.50;;;35.80;17.80;;;;;;5014662;28;20025;-69
2021/05/18 15:36:24;;;;;;;0.10;0.10;;;35.90;18.00;;;;;;5014496;28;20391;-69
2021/05/18 15:38:49;;;;;;;0.20;0.20;;;36.20;18.30;;;;;;5014622;28;20084;-69
2021/05/18 15:41:16;;;;;;;0.45;0.20;;;36.20;17.10;;;;;;5014633;28;20029;-69
2021/05/18 15:43:44;;;;;;;1.13;0.28;;;35.90;16.90;;;;;;5014753;28;20029;-69
2021/05/18 15:46:10;;;;;;;0.40;0.38;;;35.40;17.10;;;;;;5014343;28;20029;-67
2021/05/18 15:48:36;;;;;;;0.13;0.13;;;34.80;17.30;;;;;;5014158;28;20024;-69
2021/05/18 15:51:05;;;;;;;1.30;0.30;;;34.10;18.00;;;;;;5014139;28;20494;-69
2021/05/18 15:53:31;;;;;;;0.50;0.22;;;33.80;18.80;;;;;;5014455;28;20030;-69
2021/05/18 15:55:57;;;;;;;0.17;0.17;;;33.80;19.10;;;;;;5014166;28;20097;-69
2021/05/18 15:58:24;;;;;;;1.20;0.20;;;33.70;19.00;;;;;;5013992;28;20033;-69
2021/05/18 16:00:52;;;;;;;0.30;0.20;;;33.40;19.00;;;;;;5014162;28;20041;-68
2021/05/18 16:03:18;;;;;;;0.10;0.10;;;32.90;19.10;;;;;;5013945;28;20087;-69
2021/05/18 16:05:44;;;;;;;0.45;0.22;;;32.20;19.50;;;;;;5012487;28;20037;-69
2021/05/18 16:11:02;;;;;;;0.95;0.25;;;31.00;21.00;;;;;;5014166;28;20028;-68
2021/05/18 16:13:29;;;;;;;0.32;0.20;;;30.80;21.80;;;;;;5014290;28;20029;-68
2021/05/18 16:16:04;;;;;;;0.43;0.20;;;30.90;21.50;;;;;;5014276;28;20057;-67
2021/05/18 16:18:31;;;;;;;0.22;0.20;;;30.90;21.20;;;;;;5013575;28;20229;-67
2021/05/18 16:20:57;;;;;;;0.47;0.28;;;30.60;21.00;;;;;;5013104;28;20034;-67
2021/05/18 16:23:23;;;;;;;0.10;0.10;;;30.10;21.20;;;;;;5013759;28;20075;-67
2021/05/18 16:25:49;;;;;;;0.60;0.32;;;29.40;21.60;;;;;;5013680;28;20064;-67
2021/05/18 16:28:16;;;;;;;0.43;0.20;;;28.80;22.10;;;;;;5013540;28;20483;-67
2021/05/18 16:30:41;;;;;;;0.70;0.20;;;28.20;22.50;;;;;;5013777;28;20029;-67
2021/05/18 16:33:07;;;;;;;1.17;0.30;;;27.70;23.30;;;;;;5013540;28;20018;-67
2021/05/18 16:35:33;;;;;;;0.10;0.10;;;27.10;24.00;;;;;;5013641;28;20412;-69
2021/05/18 16:37:59;;;;;;;2.00;0.40;;;26.70;24.60;;;;;;5013574;28;20033;-67
2021/05/18 16:40:25;;;;;;;0.43;0.30;;;26.30;25.30;;;;;;5013668;28;20030;-66
2021/05/18 16:42:51;;;;;;;0.10;0.10;;;25.80;25.70;;;;;;5013420;28;20444;-66
2021/05/18 16:45:17;;;;;;;0.50;0.30;;;25.50;26.20;;;;;;5013683;28;20104;-66
2021/05/18 16:47:43;;;;;;;0.25;0.20;;;25.20;26.80;;;;;;5028550;28;20080;-66
2021/05/18 16:50:09;;;;;;;0.10;0.10;;;24.90;27.20;;;;;;5012859;28;20073;-66
2021/05/18 16:52:36;;;;;;;2.00;0.30;;;24.80;27.50;;;;;;5013333;28;20476;-67
2021/05/18 16:55:06;;;;;;;0.63;0.30;;;24.60;28.00;;;;;;5013344;28;20041;-66
2021/05/18 16:57:32;;;;;;;1.17;0.30;;;24.40;28.00;;;;;;5013243;28;20507;-66
2021/05/18 16:59:57;;;;;;;0.73;0.30;;;24.20;28.60;;;;;;5013299;28;20042;-69
2021/05/18 17:02:23;;;;;;;0.63;0.40;;;24.00;28.60;;;;;;5013176;28;20492;-67
2021/05/18 17:04:50;;;;;;;0.30;0.20;;;23.80;29.00;;;;;;5013090;28;20029;-66
2021/05/18 17:07:18;;;;;;;0.20;0.20;;;23.60;29.40;;;;;;5013205;28;20022;-67
2021/05/18 17:09:43;;;;;;;0.85;0.43;;;23.40;29.70;;;;;;5013213;28;20046;-66
2021/05/18 17:12:09;;;;;;;0.30;0.30;;;23.30;30.10;;;;;;5013201;28;20050;-67
2021/05/18 17:14:35;;;;;;;1.55;0.55;;;23.20;30.50;;;;;;5013477;28;20030;-67
2021/05/18 17:17:01;;;;;;;0.63;0.40;;;23.10;30.80;;;;;;5012975;28;20380;-67
2021/05/18 17:19:27;;;;;;;0.40;0.28;;;23.00;31.10;;;;;;5013100;28;20055;-67
2021/05/18 17:21:53;;;;;;;1.40;0.40;;;22.90;31.20;;;;;;5011853;28;20030;-67
2021/05/18 17:24:19;;;;;;;0.80;0.30;;;22.80;31.30;;;;;;5013026;28;20053;-67
2021/05/18 17:26:44;;;;;;;0.20;0.20;;;22.70;31.60;;;;;;5012957;28;20033;-69
2021/05/18 17:29:11;;;;;;;0.45;0.28;;;22.60;31.60;;;;;;5012986;28;20030;-67
2021/05/18 17:31:37;;;;;;;0.35;0.20;;;22.60;32.00;;;;;;5014171;28;20501;-67
2021/05/18 17:34:03;;;;;;;0.20;0.20;;;22.50;32.40;;;;;;5016955;28;20057;-67
2021/05/18 17:36:30;;;;;;;0.20;0.17;;;22.50;32.40;;;;;;5015697;28;20479;-67
2021/05/18 17:38:57;;;;;;;2.33;0.57;;;22.40;32.30;;;;;;5016945;28;20026;-67
2021/05/18 17:41:23;;;;;;;2.42;0.50;;;22.30;32.30;;;;;;5016867;28;20101;-69
2021/05/18 17:43:50;;;;;;;0.32;0.20;;;22.20;32.40;;;;;;5017881;28;20033;-66
2021/05/18 17:46:16;;;;;;;0.30;0.20;;;22.10;33.30;;;;;;5036434;28;20037;-67
2021/05/18 17:48:43;;;;;;;2.95;0.30;;;22.00;33.60;;;;;;5036451;28;20025;-67
2021/05/18 17:51:09;;;;;;;1.05;0.40;;;21.90;33.80;;;;;;5036243;28;20049;-66
2021/05/18 17:53:34;;;;;;;0.50;0.20;;;21.80;33.90;;;;;;5036369;28;20037;-67
2021/05/18 17:56:00;;;;;;;1.90;0.30;;;21.70;33.90;;;;;;5036276;28;20379;-67
2021/05/18 17:58:26;;;;;;;0.95;0.30;;;21.60;34.10;;;;;;5036170;28;20053;-66
2021/05/18 18:00:52;;;;;;;0.75;0.43;;;21.50;34.50;;;;;;5034926;28;20486;-67
2021/05/18 18:03:19;;;;;;;3.25;0.60;;;21.30;35.20;;;;;;5036426;28;20100;-67
2021/05/18 18:05:45;;;;;;;2.22;1.05;;;21.20;35.20;;;;;;5028441;28;20022;-67